Dell Rapids, SD (57022)

9:37 PM CDT on September 01, 2015 (GMT -0500)
IEM | | Change Station
CLOSE
Current Station
Personal Weather Station
Location: Baltic, SD
Elevation: 1509 ft
Nearby Weather Stations

Elev 1509 ft 43.76 °N, 96.74 °W | Updated 19 minutes ago

Partly Cloudy
Partly Cloudy
73 °F
Feels Like 73 °F
N
3
Wind Variable Wind from ENE
Gusts 0.0 mph

Today
High -- | Low -- °F
--% Chance of Precip.
Yesterday
High -- | Low -- °F
Precip. -- in
6:50 AM 8:02 PM
Waning Gibbous, 84% visible
Pressure 29.85 in
Visibility 7.0 miles
Clouds Few 6000 ft
Mostly Cloudy 11500 ft
Mostly Cloudy 25000 ft
Dew Point 73 °F
Humidity 100%
Rainfall in
Snow Depth Not available.
UV 0 out of 12
Pollen 10.10 out of 12
Air Quality Not available.
Flu Activity Not available.
METAR KFSD 020156Z 05006KT 7SM FEW060 BKN115 BKN250 23/22 A2987 RMK AO2 SLP107 T02280217
Pressure 29.85 in
Visibility 7.0 miles
Clouds Few 6000 ft
Mostly Cloudy 11500 ft
Mostly Cloudy 25000 ft
Dew Point 73 °F
Humidity 100%
Rainfall in
Snow Depth Not available.
UV 0 out of 12
Pollen 10.10 out of 12
Air Quality Not available.
Flu Activity Not available.
METAR KFSD 020156Z 05006KT 7SM FEW060 BKN115 BKN250 23/22 A2987 RMK AO2 SLP107 T02280217

10-Day Weather Forecast

×

Almanac

Astronomy

Sep. 01, 2015 Rise Set
Actual Time
Civil Twilight
Nautical Twilight
Astronomical Twilight
Moon
Length of Visible Light
Length of Day
Tomorrow will be .
, % of the Moon is Illuminated

Today's Extremes

State Highs State Lows

Community

WunderPhotos

Upload Photos

1,851,681 photos uploaded!

WunderBlogs® & News

Nearby

Air Quality

  Air Quality AQ Index Pollutant
Not available.

Snow Depth

Station Depth Elevation

Earthquake Activity

City Distance Mag. Time & Date
Minimum magnitude displayed is 2.5.

Coastal Water Temperatures

Place Temperature

Stations

Nearby Weather Stations

Station Location Temp. Windchill Dew Point Humidity Wind Precip. Elev Updated Type